Time;durP1;ratioP1;P1;durP2;ratioP2;P2;SDS_P1;SDS_P2;PMS_P1;PMS_P2;Temp;Humidity;BMP_temperature;BMP_pressure;BME280_temperature;BME280_humidity;BME280_pressure;Samples;Min_cycle;Max_cycle;Signal;HPM_P1;HPM_P2
2022/11/07 00:00:21;;;;;;;4.17;1.60;;;;;;;18.02;62.44;96609.88;10438703;28;20037;-29
2022/11/07 00:05:22;;;;;;;2.15;1.45;;;;;;;18.00;62.31;96603.97;10438498;28;20369;-29
2022/11/07 00:10:22;;;;;;;2.85;1.33;;;;;;;17.98;62.42;96615.81;10438262;28;20037;-29
2022/11/07 00:15:23;;;;;;;4.40;1.45;;;;;;;18.03;62.16;96626.75;10438262;28;20037;-30
2022/11/07 00:20:23;;;;;;;4.63;1.30;;;;;;;18.15;62.19;96617.47;10435484;28;20041;-30
2022/11/07 00:25:23;;;;;;;5.20;1.75;;;;;;;18.16;62.21;96636.06;10436341;28;20283;-31
2022/11/07 00:30:24;;;;;;;3.03;1.17;;;;;;;18.15;61.83;96614.94;10439806;28;20182;-30
2022/11/07 00:35:24;;;;;;;2.33;1.30;;;;;;;18.12;62.25;96619.16;10439374;28;20370;-31
2022/11/07 00:40:25;;;;;;;2.03;1.33;;;;;;;18.07;62.21;96621.69;10427488;28;20688;-30
2022/11/07 00:45:25;;;;;;;6.93;1.67;;;;;;;17.96;62.42;96622.53;10442585;28;20283;-29
2022/11/07 00:50:25;;;;;;;3.03;1.55;;;;;;;18.00;62.43;96645.31;10445718;28;20037;-30
2022/11/07 00:55:26;;;;;;;2.92;1.23;;;;;;;17.97;62.54;96647.00;10443426;28;20031;-29
2022/11/07 01:00:26;;;;;;;7.27;1.53;;;;;;;17.99;62.43;96658.00;10441776;28;20021;-29
2022/11/07 01:05:27;;;;;;;3.80;1.20;;;;;;;17.96;62.79;96665.59;10435638;28;20840;-30
2022/11/07 01:10:27;;;;;;;2.83;1.10;;;;;;;17.94;62.66;96674.88;10437464;28;20314;-29
2022/11/07 01:15:28;;;;;;;2.10;1.00;;;;;;;17.96;62.67;96690.91;10435012;28;20283;-30
2022/11/07 01:20:28;;;;;;;3.25;0.82;;;;;;;17.99;62.47;96675.75;10435885;28;20551;-30
2022/11/07 01:25:28;;;;;;;7.90;1.20;;;;;;;18.09;62.75;96677.44;10435387;28;20044;-29
2022/11/07 01:30:29;;;;;;;5.13;1.25;;;;;;;18.14;62.39;96683.34;10441769;28;20374;-29
2022/11/07 01:35:31;;;;;;;4.47;1.40;;;;;;;18.07;61.97;96672.38;10433997;28;20416;-29
2022/11/07 01:41:20;;;;;;;1.75;0.98;;;;;;;18.08;62.18;96675.75;10443260;28;20120;-30
2022/11/07 01:45:55;;;;;;;3.53;1.13;;;;;;;18.04;62.27;96677.44;10428311;28;20080;-29
2022/11/07 01:50:56;;;;;;;1.67;0.97;;;;;;;18.01;62.52;96646.19;10436642;28;20542;-29
2022/11/07 01:55:56;;;;;;;2.38;1.10;;;;;;;17.98;62.70;96661.41;10438436;28;20280;-30
2022/11/07 02:00:57;;;;;;;1.52;1.00;;;;;;;17.94;62.81;96649.56;10441786;28;20036;-30
2022/11/07 02:06:02;;;;;;;2.60;1.75;;;;;;;17.97;62.65;96649.53;10432160;28;20029;-31
2022/11/07 02:11:04;;;;;;;3.65;1.13;;;;;;;17.96;62.81;96642.78;10437169;28;20242;-28
2022/11/07 02:16:05;;;;;;;4.25;1.33;;;;;;;17.94;63.08;96639.41;10429289;28;20052;-30
2022/11/07 02:21:26;;;;;;;3.30;1.10;;;;;;;17.87;62.95;96638.59;10438930;28;20052;-29
2022/11/07 02:26:27;;;;;;;2.22;1.13;;;;;;;18.05;62.63;96651.25;10436627;28;20120;-30
2022/11/07 02:31:28;;;;;;;2.22;0.85;;;;;;;18.06;62.34;96647.00;10438046;28;20043;-29
2022/11/07 02:36:28;;;;;;;3.72;1.02;;;;;;;18.09;62.60;96647.03;10430030;28;20513;-30
2022/11/07 02:41:33;;;;;;;1.73;0.80;;;;;;;18.09;61.98;96635.19;10434868;28;20028;-31
2022/11/07 02:46:34;;;;;;;6.05;1.33;;;;;;;18.05;62.37;96637.72;10431895;28;20045;-30
2022/11/07 02:51:35;;;;;;;2.25;1.30;;;;;;;18.04;62.26;96652.09;10424053;28;20033;-29
2022/11/07 02:56:35;;;;;;;6.47;1.23;;;;;;;18.03;62.74;96647.03;10432772;28;20055;-29
2022/11/07 03:01:35;;;;;;;1.93;0.93;;;;;;;18.01;62.60;96641.13;10437381;28;20364;-30
2022/11/07 03:06:36;;;;;;;3.50;0.95;;;;;;;17.99;62.80;96625.09;10427325;28;20662;-30
2022/11/07 03:11:36;;;;;;;3.38;1.23;;;;;;;17.96;62.97;96637.72;10431522;28;20100;-29
2022/11/07 03:16:37;;;;;;;4.43;1.10;;;;;;;17.96;62.78;96622.53;10434694;28;20029;-29
2022/11/07 03:21:37;;;;;;;2.47;1.35;;;;;;;17.94;62.60;96614.97;10432198;28;20295;-30
2022/11/07 03:26:38;;;;;;;4.20;1.10;;;;;;;17.94;62.92;96624.22;10435760;28;20033;-30
2022/11/07 03:31:38;;;;;;;3.57;1.37;;;;;;;18.02;63.11;96625.94;10432763;28;20283;-30
2022/11/07 03:36:38;;;;;;;1.83;1.03;;;;;;;18.05;63.33;96630.13;10433459;28;20757;-29
2022/11/07 03:41:39;;;;;;;4.63;1.15;;;;;;;18.04;62.66;96638.59;10433503;28;20283;-30
2022/11/07 03:46:39;;;;;;;4.05;1.13;;;;;;;18.03;62.55;96642.81;10429513;28;20056;-29
2022/11/07 03:51:40;;;;;;;2.47;0.90;;;;;;;18.05;62.47;96647.88;10444821;28;20036;-29
2022/11/07 03:56:40;;;;;;;1.85;1.13;;;;;;;18.02;62.57;96652.94;10431251;28;20395;-29
2022/11/07 04:01:41;;;;;;;4.97;1.30;;;;;;;17.99;62.64;96652.94;10435531;28;20029;-30
2022/11/07 04:06:41;;;;;;;2.47;1.52;;;;;;;17.98;62.80;96661.41;10431661;28;20396;-30
2022/11/07 04:17:19;;;;;;;1.45;0.93;;;;;;;17.96;62.82;96681.66;10430473;28;20415;-29
2022/11/07 04:22:19;;;;;;;3.53;1.45;;;;;;;17.96;63.01;96683.31;10424536;28;20490;-31
2022/11/07 04:32:39;;;;;;;3.15;1.17;;;;;;;17.93;63.05;96690.94;10433244;28;20033;-30
2022/11/07 04:37:40;;;;;;;2.40;0.90;;;;;;;18.00;63.23;96677.44;10424808;28;20021;-30
2022/11/07 04:42:41;;;;;;;6.72;1.30;;;;;;;18.01;63.17;96684.19;10439755;28;20418;-29
2022/11/07 04:47:42;;;;;;;4.50;0.93;;;;;;;17.99;63.04;96693.47;10433512;28;20033;-29
2022/11/07 04:52:44;;;;;;;5.35;0.98;;;;;;;18.00;62.75;96698.53;10451717;28;20025;-30
2022/11/07 04:57:44;;;;;;;1.58;0.90;;;;;;;17.96;62.75;96693.44;10438467;28;20044;-30
2022/11/07 05:02:45;;;;;;;3.20;1.00;;;;;;;18.00;62.89;96712.91;10445138;28;20032;-30
2022/11/07 05:07:46;;;;;;;2.85;1.15;;;;;;;17.98;62.94;96712.06;10440947;28;20041;-29
2022/11/07 05:12:47;;;;;;;6.82;1.40;;;;;;;17.96;62.96;96706.97;10445556;28;20037;-30
2022/11/07 05:17:48;;;;;;;4.07;0.90;;;;;;;17.94;62.87;96715.41;10459116;28;20164;-31
2022/11/07 05:28:09;;;;;;;4.88;1.52;;;;;;;17.94;63.18;96712.88;10445219;28;20025;-31
2022/11/07 05:33:11;;;;;;;2.47;0.82;;;;;;;17.98;62.80;96717.13;10437595;28;20407;-29
2022/11/07 05:38:12;;;;;;;5.40;0.95;;;;;;;17.96;63.11;96718.78;10430064;28;20029;-29
2022/11/07 05:43:13;;;;;;;3.33;1.27;;;;;;;18.05;63.03;96719.66;10439078;28;20033;-29
2022/11/07 05:48:14;;;;;;;4.18;1.00;;;;;;;18.13;62.53;96712.91;10439940;28;20076;-30
2022/11/07 05:53:14;;;;;;;3.95;1.40;;;;;;;18.14;62.49;96718.81;10440236;28;20111;-30
2022/11/07 05:58:14;;;;;;;4.82;1.50;;;;;;;18.15;62.22;96734.03;10417184;28;20021;-29
2022/11/07 06:03:15;;;;;;;8.67;1.50;;;;;;;18.10;62.48;96732.34;10434095;28;20078;-29
2022/11/07 06:08:16;;;;;;;10.55;1.48;;;;;;;18.13;62.31;96733.19;10436306;28;20032;-29
2022/11/07 06:13:16;;;;;;;6.33;1.50;;;;;;;18.13;62.71;96732.31;10439869;28;20035;-29
2022/11/07 06:18:19;;;;;;;3.43;1.33;;;;;;;18.14;62.39;96734.00;10437917;28;20586;-30
2022/11/07 06:23:19;;;;;;;13.05;1.92;;;;;;;18.02;61.54;96744.13;10425634;28;20033;-29
2022/11/07 06:28:19;;;;;;;5.22;1.73;;;;;;;18.03;62.29;96741.63;10437871;28;20037;-30
2022/11/07 06:33:20;;;;;;;6.78;1.52;;;;;;;18.09;62.59;96740.78;10437110;28;20043;-29
2022/11/07 06:38:21;;;;;;;6.45;1.85;;;;;;;17.94;60.40;96743.28;10428563;28;20086;-29
2022/11/07 06:43:21;;;;;;;8.37;1.97;;;;;;;17.88;62.04;96760.97;10418681;28;20099;-29
2022/11/07 06:48:21;;;;;;;8.17;2.37;;;;;;;18.01;62.00;96757.66;10433748;28;20311;-30
2022/11/07 06:53:22;;;;;;;14.03;1.70;;;;;;;18.10;62.10;96761.06;10438347;28;20283;-30
2022/11/07 06:58:22;;;;;;;11.43;1.77;;;;;;;18.10;61.90;96756.00;10433591;28;20384;-29
2022/11/07 07:03:22;;;;;;;5.17;2.20;;;;;;;18.10;61.47;96752.59;10434453;28;20687;-30
2022/11/07 07:08:24;;;;;;;4.73;1.50;;;;;;;18.04;62.47;96762.72;10426508;28;20299;-29
2022/11/07 07:13:24;;;;;;;5.32;1.48;;;;;;;18.01;62.57;96777.91;10437698;28;20044;-29
2022/11/07 07:18:25;;;;;;;7.07;1.70;;;;;;;17.99;62.80;96779.59;10435607;28;20024;-30
2022/11/07 07:23:26;;;;;;;2.83;1.67;;;;;;;17.96;63.19;96782.09;10424444;28;20028;-30
2022/11/07 07:28:27;;;;;;;3.17;1.25;;;;;;;17.97;62.97;96786.34;10433587;28;20033;-30
2022/11/07 07:33:27;;;;;;;6.75;1.45;;;;;;;17.96;63.03;96780.44;10434764;28;20033;-30
2022/11/07 07:38:27;;;;;;;5.70;1.40;;;;;;;17.95;63.09;96777.88;10434075;28;20074;-29
2022/11/07 07:43:28;;;;;;;3.63;1.25;;;;;;;17.93;63.11;96790.53;10432899;28;20658;-29
2022/11/07 07:48:30;;;;;;;4.43;1.98;;;;;;;17.94;63.58;96781.25;10422838;28;20403;-29
2022/11/07 07:53:30;;;;;;;3.15;1.10;;;;;;;17.95;63.03;96777.88;10442350;28;20032;-30
2022/11/07 07:58:31;;;;;;;4.37;1.40;;;;;;;18.06;62.80;96781.28;10432519;28;20025;-30
2022/11/07 08:03:31;;;;;;;3.88;1.23;;;;;;;18.06;62.76;96768.63;10436947;28;20283;-30
2022/11/07 08:08:32;;;;;;;1.83;0.80;;;;;;;18.07;62.23;96772.88;10427262;28;20403;-30
2022/11/07 08:13:33;;;;;;;3.47;1.10;;;;;;;18.00;62.59;96769.44;10437658;28;20063;-29
2022/11/07 08:18:35;;;;;;;2.72;1.25;;;;;;;17.99;63.06;96784.66;10443021;28;20025;-30
2022/11/07 08:23:36;;;;;;;3.35;1.25;;;;;;;17.96;62.86;96771.97;10434868;28;20037;-30
2022/11/07 08:28:37;;;;;;;2.78;1.20;;;;;;;17.95;62.90;96772.81;10443763;28;20479;-29
2022/11/07 08:33:37;;;;;;;5.20;0.90;;;;;;;17.96;63.13;96769.44;10444237;28;20032;-29
2022/11/07 08:38:38;;;;;;;4.88;1.40;;;;;;;17.94;62.65;96776.19;10436121;28;20059;-31
2022/11/07 08:43:38;;;;;;;2.95;1.25;;;;;;;17.91;63.10;96771.13;10443427;28;20082;-29
2022/11/07 08:48:39;;;;;;;2.00;1.10;;;;;;;17.90;63.12;96789.72;10452122;28;20032;-30
2022/11/07 08:53:39;;;;;;;6.28;1.30;;;;;;;17.90;63.05;96789.72;10443535;28;20295;-29
2022/11/07 08:58:40;;;;;;;2.88;1.13;;;;;;;17.90;63.25;96799.84;10442730;28;20108;-29
2022/11/07 09:03:40;;;;;;;3.85;0.93;;;;;;;17.98;63.23;96788.06;10442520;28;20041;-29
2022/11/07 09:08:41;;;;;;;3.20;1.07;;;;;;;18.01;63.32;96798.19;10435705;28;20082;-30
2022/11/07 09:13:41;;;;;;;1.60;1.50;;;;;;;18.03;62.75;96791.41;10450244;28;20796;-29
2022/11/07 09:18:43;;;;;;;2.72;0.75;;;;;;;18.04;62.65;96788.03;10440220;28;20149;-30
2022/11/07 09:23:43;;;;;;;2.28;0.85;;;;;;;18.00;62.81;96791.44;10435212;28;20033;-30
2022/11/07 09:28:44;;;;;;;1.92;0.95;;;;;;;17.97;62.77;96804.06;10444740;28;20041;-30
2022/11/07 09:33:44;;;;;;;1.60;0.80;;;;;;;17.96;62.82;96795.63;10444615;28;20037;-31
2022/11/07 09:38:45;;;;;;;3.70;0.90;;;;;;;17.97;62.85;96788.88;10435354;28;20642;-31
2022/11/07 09:43:54;;;;;;;4.63;1.15;;;;;;;17.95;62.98;96793.09;10443263;28;20275;-29
2022/11/07 09:49:02;;;;;;;2.47;0.82;;;;;;;17.95;62.97;96790.56;10442191;28;20037;-30
2022/11/07 09:54:10;;;;;;;3.58;0.90;;;;;;;17.91;63.20;96799.81;10437275;28;20045;-31
2022/11/07 09:59:18;;;;;;;2.63;0.80;;;;;;;17.93;62.85;96799.84;10438914;28;20557;-30
2022/11/07 10:04:21;;;;;;;2.15;0.80;;;;;;;17.90;63.43;96805.72;10440976;28;20020;-29
2022/11/07 10:09:30;;;;;;;2.35;0.75;;;;;;;17.94;63.34;96796.47;10435848;28;20074;-29
2022/11/07 10:14:40;;;;;;;1.55;0.98;;;;;;;18.00;63.25;96806.63;10432196;28;20068;-29
2022/11/07 10:19:47;;;;;;;2.05;0.85;;;;;;;17.99;63.22;96810.00;10436411;28;20087;-29
2022/11/07 10:24:56;;;;;;;1.58;0.90;;;;;;;18.01;62.82;96813.38;10434195;28;20029;-30
2022/11/07 10:29:59;;;;;;;1.27;0.63;;;;;;;17.98;62.66;96814.22;10434500;28;20413;-30
2022/11/07 10:35:11;;;;;;;2.03;0.80;;;;;;;17.99;62.87;96820.13;10439143;28;20513;-29
2022/11/07 10:40:17;;;;;;;2.17;0.75;;;;;;;17.94;62.96;96806.59;10436172;28;20029;-29
2022/11/07 10:45:18;;;;;;;3.77;0.60;;;;;;;17.96;62.86;96820.97;10425433;28;20415;-29
2022/11/07 10:50:21;;;;;;;1.85;0.82;;;;;;;17.97;62.72;96811.66;10443331;28;20040;-29
2022/11/07 10:55:23;;;;;;;1.85;0.65;;;;;;;17.97;62.87;96811.66;10438955;28;20039;-29
2022/11/07 11:00:30;;;;;;;1.05;0.60;;;;;;;17.96;62.69;96809.97;10437176;28;20036;-30
2022/11/07 11:05:47;;;;;;;1.52;1.17;;;;;;;17.93;62.99;96809.97;10431468;28;20284;-29
2022/11/07 11:10:48;;;;;;;1.42;0.93;;;;;;;17.88;63.01;96791.38;10432441;28;20037;-30
2022/11/07 11:15:49;;;;;;;1.45;1.35;;;;;;;17.96;63.19;96787.16;10437038;28;20476;-30
2022/11/07 11:21:00;;;;;;;2.83;1.00;;;;;;;17.96;63.32;96794.78;10427807;28;20209;-30
2022/11/07 11:26:23;;;;;;;1.58;0.60;;;;;;;17.98;63.22;96772.84;10434455;28;20035;-29
2022/11/07 11:31:31;;;;;;;1.50;1.10;;;;;;;18.01;62.60;96775.38;10436872;28;20032;-30
2022/11/07 11:36:39;;;;;;;2.47;0.80;;;;;;;17.98;62.77;96778.75;10426493;28;20035;-30
2022/11/07 11:41:50;;;;;;;0.75;0.60;;;;;;;17.99;62.91;96774.53;10437472;28;20102;-30
2022/11/07 11:46:56;;;;;;;1.27;0.60;;;;;;;17.96;62.96;96771.97;10433313;28;20501;-29
2022/11/07 11:52:11;;;;;;;10.00;1.00;;;;;;;17.92;62.50;96775.34;10425637;28;20047;-31
2022/11/07 11:57:56;;;;;;;6.47;0.93;;;;;;;17.90;62.95;96769.44;10434085;28;20029;-30
2022/11/07 12:03:00;;;;;;;6.10;0.77;;;;;;;17.96;62.74;96774.50;10422799;28;20108;-29
2022/11/07 12:08:19;;;;;;;1.52;0.75;;;;;;;17.97;62.88;96782.13;10428053;28;20034;-29
2022/11/07 12:13:43;;;;;;;3.05;1.13;;;;;;;17.96;62.93;96785.50;10432275;28;20491;-29
2022/11/07 12:19:02;;;;;;;2.15;0.70;;;;;;;17.99;62.75;96774.53;10435874;28;20518;-29
2022/11/07 12:24:18;;;;;;;4.35;1.00;;;;;;;18.01;62.85;96782.97;10440841;28;20029;-30
2022/11/07 12:29:52;;;;;;;3.35;0.95;;;;;;;18.02;63.46;96779.59;10444711;28;20037;-29
2022/11/07 12:35:04;;;;;;;4.47;1.00;;;;;;;18.04;62.79;96777.91;10432033;28;20041;-29
2022/11/07 12:40:28;;;;;;;1.45;0.60;;;;;;;18.05;62.58;96764.41;10433068;28;20033;-29
2022/11/07 12:46:13;;;;;;;4.53;0.98;;;;;;;18.04;63.04;96757.66;10429175;28;20037;-30
2022/11/07 12:51:45;;;;;;;1.33;0.68;;;;;;;18.06;62.38;96758.47;10429051;28;20478;-29
2022/11/07 12:56:47;;;;;;;3.63;1.60;;;;;;;18.08;62.61;96751.75;10425125;28;20037;-30
2022/11/07 13:02:10;;;;;;;3.35;1.15;;;;;;;18.07;62.72;96752.59;10428632;28;20107;-31
2022/11/07 13:07:24;;;;;;;3.90;1.33;;;;;;;18.06;62.75;96740.75;10416172;28;20123;-30
2022/11/07 13:12:33;;;;;;;5.22;1.20;;;;;;;18.06;62.79;96740.75;10436832;28;20323;-30
2022/11/07 13:17:42;;;;;;;1.92;1.23;;;;;;;18.05;62.49;96731.47;10429801;28;20040;-29
2022/11/07 13:22:43;;;;;;;4.28;2.10;;;;;;;18.05;63.12;96726.41;10428975;28;20114;-29
2022/11/07 13:28:04;;;;;;;7.10;2.50;;;;;;;18.07;62.94;96727.28;10436666;28;20034;-29
2022/11/07 13:33:06;;;;;;;4.65;1.95;;;;;;;18.02;63.66;96721.34;10437163;28;20693;-29
2022/11/07 13:38:16;;;;;;;7.40;1.65;;;;;;;18.08;64.58;96719.66;10427872;28;20052;-29
2022/11/07 13:43:25;;;;;;;4.70;1.67;;;;;;;18.07;63.56;96712.91;10446041;28;20025;-30
2022/11/07 13:48:55;;;;;;;6.18;1.98;;;;;;;18.07;63.52;96717.13;10447898;28;20037;-29
2022/11/07 13:54:14;;;;;;;4.07;1.30;;;;;;;18.04;63.75;96717.13;10431522;28;20113;-31
2022/11/07 13:59:32;;;;;;;2.40;1.20;;;;;;;18.03;63.71;96726.41;10436856;28;20041;-30
2022/11/07 14:04:32;;;;;;;2.78;1.20;;;;;;;18.01;63.53;96724.72;10441091;28;20104;-30
2022/11/07 14:09:32;;;;;;;2.43;1.37;;;;;;;17.93;64.03;96723.84;10436439;28;20463;-29
2022/11/07 14:14:33;;;;;;;3.28;1.40;;;;;;;18.01;63.50;96722.19;10449523;28;20035;-30
2022/11/07 14:19:33;;;;;;;6.60;1.60;;;;;;;17.99;63.76;96719.63;10436948;28;20067;-28
2022/11/07 14:24:34;;;;;;;4.20;1.55;;;;;;;17.99;63.73;96708.69;10442823;28;20389;-29
2022/11/07 14:29:35;;;;;;;2.85;1.10;;;;;;;17.96;64.38;96711.19;10454211;28;20036;-29
2022/11/07 14:34:43;;;;;;;5.25;1.42;;;;;;;17.98;63.90;96717.13;10449244;28;20021;-29
2022/11/07 14:39:43;;;;;;;4.68;1.40;;;;;;;18.02;63.77;96718.81;10441697;28;20024;-30
2022/11/07 14:44:47;;;;;;;5.07;1.70;;;;;;;18.04;64.15;96712.03;10443798;28;20033;-29
2022/11/07 14:49:51;;;;;;;6.00;1.15;;;;;;;18.06;63.46;96705.28;10435946;28;20057;-31
2022/11/07 14:55:04;;;;;;;2.20;1.02;;;;;;;18.03;63.42;96702.75;10441311;28;20029;-30
2022/11/07 15:00:15;;;;;;;9.15;1.65;;;;;;;17.96;63.79;96696.00;10432448;28;20032;-30
2022/11/07 15:05:21;;;;;;;7.28;1.40;;;;;;;18.01;62.97;96696.84;10438775;28;20466;-30
2022/11/07 15:10:24;;;;;;;5.17;1.60;;;;;;;17.98;63.37;96691.78;10444208;28;20024;-29
2022/11/07 15:15:34;;;;;;;10.63;1.40;;;;;;;17.94;63.75;96690.94;10442826;28;20652;-30
2022/11/07 15:20:37;;;;;;;4.25;1.20;;;;;;;17.95;63.80;96701.91;10439424;28;20030;-31
2022/11/07 15:25:40;;;;;;;3.55;1.10;;;;;;;17.96;63.56;96698.53;10443125;28;20578;-30
2022/11/07 15:30:42;;;;;;;5.68;1.10;;;;;;;17.94;63.69;96700.22;10444474;28;20033;-30
2022/11/07 15:35:45;;;;;;;3.17;1.08;;;;;;;17.93;63.84;96694.28;10435419;28;20135;-29
2022/11/07 15:40:46;;;;;;;7.47;1.55;;;;;;;17.91;63.63;96697.69;10443462;28;20031;-30
2022/11/07 15:45:49;;;;;;;3.65;1.20;;;;;;;17.95;63.59;96704.44;10438725;28;20029;-29
2022/11/07 15:50:49;;;;;;;7.25;1.52;;;;;;;18.02;63.53;96708.66;10437702;28;20107;-29
2022/11/07 15:55:52;;;;;;;4.28;1.17;;;;;;;18.01;63.47;96712.06;10445760;28;20029;-30
2022/11/07 16:00:54;;;;;;;4.45;1.63;;;;;;;17.99;63.01;96696.84;10435690;28;20027;-29
2022/11/07 16:05:59;;;;;;;4.03;1.60;;;;;;;17.97;63.15;96705.28;10438091;28;20028;-30
2022/11/07 16:11:01;;;;;;;4.60;1.20;;;;;;;17.91;63.14;96700.22;10445561;28;20116;-30
2022/11/07 16:16:02;;;;;;;5.13;1.60;;;;;;;17.89;63.42;96701.88;10442818;28;20503;-29
2022/11/07 16:21:02;;;;;;;7.90;1.77;;;;;;;17.82;62.56;96692.59;10442791;28;20048;-29
2022/11/07 16:26:03;;;;;;;5.07;1.10;;;;;;;17.89;63.34;96702.75;10430893;28;20406;-30
2022/11/07 16:31:03;;;;;;;2.85;1.40;;;;;;;17.88;63.45;96700.19;10421686;28;20025;-30
2022/11/07 16:36:20;;;;;;;11.43;2.38;;;;;;;17.88;60.17;96697.66;10428869;28;20090;-30
2022/11/07 16:41:21;;;;;;;15.65;2.58;;;;;;;17.73;58.64;96690.06;10438889;28;20454;-30
2022/11/07 16:46:24;;;;;;;9.20;2.30;;;;;;;17.71;60.48;96695.09;10442357;28;20033;-29
2022/11/07 16:51:24;;;;;;;4.70;2.05;;;;;;;17.81;61.78;96708.63;10435074;28;20040;-29
2022/11/07 16:56:29;;;;;;;9.43;2.43;;;;;;;17.90;62.09;96713.72;10436938;28;20037;-31
2022/11/07 17:01:30;;;;;;;8.80;2.00;;;;;;;17.93;62.32;96718.78;10439273;28;20315;-29
2022/11/07 17:06:33;;;;;;;10.32;2.13;;;;;;;17.92;62.59;96719.63;10442587;28;20040;-29
2022/11/07 17:11:33;;;;;;;7.00;1.65;;;;;;;17.87;62.78;96711.16;10440370;28;20514;-30
2022/11/07 17:16:35;;;;;;;3.93;1.80;;;;;;;17.81;62.75;96709.47;10435170;28;20116;-30
2022/11/07 17:21:36;;;;;;;7.32;2.50;;;;;;;17.83;63.34;96717.09;10433185;28;20116;-30
2022/11/07 17:26:37;;;;;;;8.10;2.67;;;;;;;17.82;63.50;96717.94;10437055;28;20052;-29
2022/11/07 17:31:40;;;;;;;10.40;3.17;;;;;;;17.75;63.77;96719.56;10435934;28;20025;-30
2022/11/07 17:36:45;;;;;;;7.68;2.65;;;;;;;17.72;63.49;96713.66;10433140;28;20033;-31
2022/11/07 17:41:48;;;;;;;8.40;2.40;;;;;;;17.74;63.77;96717.06;10436128;28;20051;-30
2022/11/07 17:46:49;;;;;;;9.07;2.83;;;;;;;17.72;63.79;96726.31;10436397;28;20033;-31
2022/11/07 17:51:52;;;;;;;10.35;2.55;;;;;;;17.76;63.56;96739.00;10431667;28;20056;-29
2022/11/07 17:56:53;;;;;;;4.38;1.92;;;;;;;17.79;62.73;96731.41;10434175;28;20021;-29
2022/11/07 18:01:53;;;;;;;9.80;3.10;;;;;;;17.85;63.71;96731.44;10426505;28;20769;-30
2022/11/07 18:06:54;;;;;;;10.37;2.87;;;;;;;17.94;63.84;96730.59;10436283;28;20160;-31
2022/11/07 18:11:54;;;;;;;12.43;3.47;;;;;;;17.96;63.69;96733.97;10433028;28;20033;-29
2022/11/07 18:16:54;;;;;;;8.10;2.93;;;;;;;17.88;63.48;96735.66;10431801;28;20029;-30
2022/11/07 18:21:55;;;;;;;6.00;3.27;;;;;;;17.80;63.61;96724.66;10429280;28;20098;-31
2022/11/07 18:26:55;;;;;;;6.70;2.67;;;;;;;17.85;63.80;96728.06;10435497;28;20377;-30
2022/11/07 18:31:55;;;;;;;14.10;3.47;;;;;;;17.81;64.19;96718.75;10437845;28;20287;-30
2022/11/07 18:36:56;;;;;;;9.67;2.53;;;;;;;17.88;63.28;96721.31;10422770;28;20474;-29
2022/11/07 18:41:57;;;;;;;4.60;2.30;;;;;;;17.99;62.82;96717.09;10425304;28;20338;-30
2022/11/07 18:46:57;;;;;;;10.50;2.20;;;;;;;18.04;62.70;96712.91;10427663;28;20041;-30
2022/11/07 18:51:57;;;;;;;5.15;2.50;;;;;;;18.01;63.77;96702.75;10412325;28;20088;-30
2022/11/07 18:56:58;;;;;;;11.13;3.63;;;;;;;18.04;62.62;96702.78;10433036;28;20091;-29
2022/11/07 19:01:58;;;;;;;6.78;2.75;;;;;;;18.08;62.69;96698.56;10430388;28;20030;-30
2022/11/07 19:06:59;;;;;;;9.20;2.37;;;;;;;18.06;62.72;96710.34;10423915;28;20369;-29
2022/11/07 19:11:59;;;;;;;9.35;2.83;;;;;;;18.10;62.72;96705.31;10425406;28;20318;-29
2022/11/07 19:17:00;;;;;;;8.13;3.33;;;;;;;18.08;63.38;96696.84;10433785;28;20025;-31
2022/11/07 19:22:00;;;;;;;11.15;2.97;;;;;;;18.10;63.31;96707.00;10434458;28;20032;-30
2022/11/07 19:27:01;;;;;;;5.13;2.53;;;;;;;18.06;62.32;96693.47;10432126;28;20036;-29
2022/11/07 19:32:01;;;;;;;7.32;2.38;;;;;;;18.04;62.38;96691.78;10431072;28;20075;-29
2022/11/07 19:37:03;;;;;;;5.07;2.40;;;;;;;18.04;62.69;96695.16;10430413;28;20555;-31
2022/11/07 19:42:04;;;;;;;14.73;3.35;;;;;;;18.01;62.81;96691.78;10430874;28;20041;-29
2022/11/07 19:47:05;;;;;;;7.10;2.30;;;;;;;18.05;62.79;96703.59;10432987;28;20648;-31
2022/11/07 19:52:05;;;;;;;3.95;2.20;;;;;;;18.01;62.96;96692.63;10431658;28;20032;-29
2022/11/07 19:57:05;;;;;;;4.53;2.13;;;;;;;18.02;62.96;96707.00;10420998;28;20399;-30
2022/11/07 20:02:08;;;;;;;8.67;2.50;;;;;;;18.02;63.06;96713.75;10424300;28;20499;-29
2022/11/07 20:07:09;;;;;;;3.13;2.15;;;;;;;18.02;63.12;96713.75;10421429;28;20043;-30
2022/11/07 20:12:10;;;;;;;6.78;2.75;;;;;;;18.02;62.84;96712.06;10428409;28;20056;-29
2022/11/07 20:17:10;;;;;;;3.75;2.40;;;;;;;18.02;62.72;96698.53;10438830;28;20036;-30
2022/11/07 20:22:12;;;;;;;4.27;2.23;;;;;;;18.05;63.25;96694.31;10432316;28;20107;-29
2022/11/07 20:27:12;;;;;;;6.45;2.72;;;;;;;18.06;62.93;96690.09;10438066;28;20563;-29
2022/11/07 20:32:13;;;;;;;5.00;2.38;;;;;;;18.04;62.97;96697.69;10430259;28;20036;-30
2022/11/07 20:37:19;;;;;;;6.57;2.07;;;;;;;18.03;62.96;96702.75;10434628;28;20386;-29
2022/11/07 20:42:20;;;;;;;4.38;2.10;;;;;;;18.01;62.72;96700.22;10436515;28;20366;-32
2022/11/07 20:47:21;;;;;;;4.50;2.40;;;;;;;18.00;62.66;96705.31;10432871;28;20499;-31
2022/11/07 20:52:21;;;;;;;4.25;2.53;;;;;;;17.99;62.92;96713.75;10436981;28;20529;-31
2022/11/07 20:57:23;;;;;;;6.07;1.88;;;;;;;17.97;62.66;96713.72;10433340;28;20107;-31
2022/11/07 21:02:24;;;;;;;4.20;1.70;;;;;;;17.98;62.86;96712.06;10428727;28;20148;-30
2022/11/07 21:07:24;;;;;;;6.57;2.47;;;;;;;17.97;62.96;96716.25;10436001;28;20037;-29
2022/11/07 21:12:25;;;;;;;4.13;2.00;;;;;;;17.98;62.73;96714.59;10434748;28;20498;-29
2022/11/07 21:17:25;;;;;;;4.43;2.10;;;;;;;17.96;63.00;96696.00;10436744;28;20621;-29
2022/11/07 21:22:26;;;;;;;5.43;2.73;;;;;;;17.95;62.97;96696.84;10428043;28;20110;-28
2022/11/07 21:27:26;;;;;;;4.07;1.95;;;;;;;17.97;62.93;96695.13;10431490;28;20033;-31
2022/11/07 21:32:26;;;;;;;7.83;2.33;;;;;;;18.00;63.07;96687.56;10428179;28;20036;-30
2022/11/07 21:37:27;;;;;;;5.87;2.27;;;;;;;17.97;63.54;96680.81;10430168;28;20017;-30
2022/11/07 21:42:27;;;;;;;4.70;1.60;;;;;;;18.01;63.26;96684.19;10435348;28;20037;-29
2022/11/07 21:47:29;;;;;;;3.60;1.73;;;;;;;18.00;62.33;96680.78;10433791;28;20037;-29
2022/11/07 21:52:29;;;;;;;3.70;1.83;;;;;;;18.03;62.42;96675.75;10437325;28;20116;-29
2022/11/07 21:57:30;;;;;;;3.47;1.90;;;;;;;18.00;62.96;96668.13;10421094;28;20040;-31
2022/11/07 22:02:30;;;;;;;2.92;1.77;;;;;;;18.01;62.92;96663.91;10429195;28;20650;-29
2022/11/07 22:07:37;;;;;;;5.77;1.97;;;;;;;18.03;63.02;96654.63;10427466;28;20557;-30
2022/11/07 22:12:37;;;;;;;;;;;;;;;18.05;62.60;96647.88;10434317;28;20279;-29
2022/11/07 22:17:37;;;;;;;3.77;1.77;;;;;;;18.05;62.65;96642.78;10436418;28;19917;-32
2022/11/07 22:22:38;;;;;;;7.23;2.30;;;;;;;17.97;62.31;96634.34;10426010;28;20104;-29
2022/11/07 22:27:38;;;;;;;8.73;2.47;;;;;;;17.91;62.26;96627.59;10438267;28;20069;-29
2022/11/07 22:32:38;;;;;;;6.43;1.83;;;;;;;17.92;62.54;96623.38;10431688;28;20427;-30
2022/11/07 22:37:39;;;;;;;4.30;2.10;;;;;;;18.00;62.40;96619.16;10443384;28;20095;-29
2022/11/07 22:42:39;;;;;;;3.13;1.70;;;;;;;18.04;62.39;96616.63;10437331;28;20275;-29
2022/11/07 22:47:40;;;;;;;5.13;2.70;;;;;;;18.04;62.85;96615.78;10426755;28;20558;-29
2022/11/07 22:52:40;;;;;;;5.90;2.40;;;;;;;18.03;62.52;96609.03;10431122;28;20524;-30
2022/11/07 22:57:41;;;;;;;3.80;1.80;;;;;;;18.01;62.58;96603.13;10433178;28;20325;-30
2022/11/07 23:02:42;;;;;;;5.60;2.10;;;;;;;18.00;62.83;96593.84;10430909;28;20025;-30
2022/11/07 23:07:42;;;;;;;5.00;1.80;;;;;;;17.98;62.88;96603.97;10438332;28;20033;-31
2022/11/07 23:12:43;;;;;;;5.22;1.85;;;;;;;17.94;63.11;96584.56;10437240;28;20113;-30
2022/11/07 23:17:43;;;;;;;4.70;1.90;;;;;;;17.95;63.21;96588.78;10433209;28;20036;-29
2022/11/07 23:22:43;;;;;;;2.20;1.30;;;;;;;17.94;63.54;96584.56;10424643;28;20091;-30
2022/11/07 23:27:44;;;;;;;3.40;1.40;;;;;;;17.95;63.30;96572.72;10433416;28;20041;-31
2022/11/07 23:32:44;;;;;;;4.73;1.77;;;;;;;17.97;63.42;96573.56;10438226;28;20033;-30
2022/11/07 23:37:45;;;;;;;2.83;1.80;;;;;;;17.96;63.22;96561.75;10433442;28;20021;-30
2022/11/07 23:42:45;;;;;;;3.33;1.60;;;;;;;17.94;63.31;96558.38;10432084;28;20041;-31